Time;durP1;ratioP1;P1;durP2;ratioP2;P2;SDS_P1;SDS_P2;PMS_P1;PMS_P2;Temp;Humidity;BMP_temperature;BMP_pressure;BME280_temperature;BME280_humidity;BME280_pressure;Samples;Min_cycle;Max_cycle;Signal;HPM_P1;HPM_P2
2021/07/03 00:00:09;;;;;;;8.10;7.40;;;;;;;;;;5095119;28;20182;-83
2021/07/03 00:02:36;;;;;;;9.17;7.90;;;;;;;;;;5094514;28;20746;-83
2021/07/03 00:05:03;;;;;;;10.90;7.40;;;;;;;;;;5094551;28;20214;-83
2021/07/03 00:07:31;;;;;;;10.90;7.60;;;;;;;;;;5094722;28;20958;-82
2021/07/03 00:09:58;;;;;;;8.67;7.80;;;;;;;;;;5094894;28;20202;-82
2021/07/03 00:12:24;;;;;;;10.23;8.13;;;;;;;;;;5094752;28;20206;-82
2021/07/03 00:14:51;;;;;;;9.07;8.27;;;;;;;;;;5094705;28;20587;-83
2021/07/03 00:17:18;;;;;;;9.53;7.77;;;;;;;;;;5094331;28;20229;-83
2021/07/03 00:19:45;;;;;;;9.33;8.10;;;;;;;;;;5094552;28;20658;-82
2021/07/03 00:22:11;;;;;;;8.43;7.60;;;;;;;;;;5093241;28;20223;-82
2021/07/03 00:24:39;;;;;;;10.63;7.87;;;;;;;;;;5094468;28;20202;-83
2021/07/03 00:27:06;;;;;;;11.97;8.33;;;;;;;;;;5092546;28;20263;-82
2021/07/03 00:29:32;;;;;;;8.87;8.07;;;;;;;;;;5094435;28;20178;-83
2021/07/03 00:31:59;;;;;;;9.00;8.20;;;;;;;;;;5094339;28;20742;-83
2021/07/03 00:34:26;;;;;;;8.33;7.57;;;;;;;;;;5092261;28;20205;-83
2021/07/03 00:36:52;;;;;;;10.17;7.73;;;;;;;;;;5092909;28;20298;-83
2021/07/03 00:39:19;;;;;;;9.80;8.30;;;;;;;;;;5094252;28;20225;-83
2021/07/03 00:41:47;;;;;;;9.40;8.53;;;;;;;;;;5094370;28;20209;-83
2021/07/03 00:44:24;;;;;;;9.47;8.23;;;;;;;;;;5092679;28;20198;-82
2021/07/03 00:46:51;;;;;;;8.77;7.87;;;;;;;;;;5092613;28;20198;-82
2021/07/03 00:49:17;;;;;;;12.30;9.00;;;;;;;;;;5092799;28;20223;-83
2021/07/03 00:51:44;;;;;;;10.00;8.70;;;;;;;;;;5092706;28;20217;-83
2021/07/03 00:54:11;;;;;;;9.83;8.77;;;;;;;;;;5092483;28;20194;-82
2021/07/03 00:56:38;;;;;;;9.73;8.33;;;;;;;;;;5093962;28;20295;-83
2021/07/03 00:59:06;;;;;;;9.07;8.27;;;;;;;;;;5092902;28;20214;-83
2021/07/03 01:01:32;;;;;;;11.67;8.50;;;;;;;;;;5093788;28;20206;-83
2021/07/03 01:03:59;;;;;;;14.07;8.30;;;;;;;;;;5091876;28;20591;-83
2021/07/03 01:06:26;;;;;;;9.10;8.27;;;;;;;;;;5092186;28;20662;-83
2021/07/03 01:08:53;;;;;;;8.90;8.00;;;;;;;;;;5092488;28;20194;-83
2021/07/03 01:11:23;;;;;;;10.53;8.27;;;;;;;;;;5092215;28;20213;-82
2021/07/03 01:13:50;;;;;;;11.70;8.43;;;;;;;;;;5093249;28;20564;-83
2021/07/03 01:16:18;;;;;;;11.70;8.30;;;;;;;;;;5092249;28;20553;-83
2021/07/03 01:18:45;;;;;;;12.30;8.73;;;;;;;;;;5092290;28;20214;-83
2021/07/03 01:21:12;;;;;;;9.00;8.20;;;;;;;;;;5093672;28;20201;-82
2021/07/03 01:23:40;;;;;;;8.60;7.70;;;;;;;;;;5093719;28;20213;-83
2021/07/03 01:26:06;;;;;;;8.93;8.13;;;;;;;;;;5093177;28;20704;-82
2021/07/03 01:28:33;;;;;;;9.30;7.93;;;;;;;;;;5093599;28;20210;-83
2021/07/03 01:31:00;;;;;;;9.50;8.30;;;;;;;;;;5091761;28;20254;-83
2021/07/03 01:33:26;;;;;;;9.00;8.10;;;;;;;;;;5093024;28;20214;-82
2021/07/03 01:35:53;;;;;;;11.63;7.90;;;;;;;;;;5092180;28;20554;-83
2021/07/03 01:38:20;;;;;;;8.93;8.07;;;;;;;;;;5093556;28;20661;-83
2021/07/03 01:40:48;;;;;;;11.83;8.20;;;;;;;;;;5092036;28;20225;-83
2021/07/03 01:43:18;;;;;;;9.50;8.10;;;;;;;;;;5091994;28;20210;-83
2021/07/03 01:45:45;;;;;;;9.73;8.27;;;;;;;;;;5092015;28;20325;-83
2021/07/03 01:48:11;;;;;;;9.17;7.93;;;;;;;;;;5092041;28;20516;-83
2021/07/03 01:50:38;;;;;;;8.53;7.83;;;;;;;;;;5093480;28;20170;-83
2021/07/03 01:53:05;;;;;;;8.10;7.30;;;;;;;;;;5093250;28;20175;-83
2021/07/03 01:55:32;;;;;;;8.70;7.90;;;;;;;;;;5092085;28;20604;-83
2021/07/03 01:58:00;;;;;;;8.70;7.80;;;;;;;;;;5092065;28;20245;-83
2021/07/03 02:00:26;;;;;;;12.40;8.07;;;;;;;;;;5091355;28;20202;-83
2021/07/03 02:02:53;;;;;;;8.53;7.73;;;;;;;;;;5091804;28;20275;-82
2021/07/03 02:05:20;;;;;;;8.43;7.67;;;;;;;;;;5091786;28;20205;-83
2021/07/03 02:07:46;;;;;;;11.43;7.83;;;;;;;;;;5093046;28;20210;-82
2021/07/03 02:10:13;;;;;;;9.33;8.13;;;;;;;;;;5094180;28;20210;-83
2021/07/03 02:12:42;;;;;;;11.87;8.80;;;;;;;;;;5097293;28;20685;-82
2021/07/03 02:15:10;;;;;;;9.37;8.33;;;;;;;;;;5095849;28;20661;-83
2021/07/03 02:17:37;;;;;;;13.93;8.83;;;;;;;;;;5096946;28;20249;-83
2021/07/03 02:20:04;;;;;;;8.50;7.77;;;;;;;;;;5095689;28;20205;-83
2021/07/03 02:22:31;;;;;;;8.87;7.93;;;;;;;;;;5095703;28;20197;-83
2021/07/03 02:24:58;;;;;;;13.77;8.30;;;;;;;;;;5097104;28;20654;-83
2021/07/03 02:27:24;;;;;;;8.73;7.83;;;;;;;;;;5095296;28;20689;-83
2021/07/03 02:29:51;;;;;;;10.03;8.27;;;;;;;;;;5095622;28;20677;-83
2021/07/03 02:32:19;;;;;;;8.60;7.80;;;;;;;;;;5096729;28;20568;-82
2021/07/03 02:34:45;;;;;;;9.93;7.63;;;;;;;;;;5095713;28;20549;-83
2021/07/03 02:37:13;;;;;;;8.97;8.07;;;;;;;;;;5095075;28;20219;-83
2021/07/03 02:39:39;;;;;;;9.23;8.20;;;;;;;;;;5095283;28;20201;-83
2021/07/03 02:42:06;;;;;;;10.90;7.53;;;;;;;;;;5095387;28;20186;-83
2021/07/03 02:44:33;;;;;;;11.77;8.73;;;;;;;;;;5096353;28;21258;-83
2021/07/03 02:46:59;;;;;;;9.10;7.90;;;;;;;;;;5096368;28;20511;-82
2021/07/03 02:49:27;;;;;;;8.70;7.80;;;;;;;;;;5095321;28;20190;-83
2021/07/03 02:51:56;;;;;;;10.00;8.17;;;;;;;;;;5095165;28;20202;-83
2021/07/03 02:54:22;;;;;;;9.77;8.70;;;;;;;;;;5096221;28;20533;-82
2021/07/03 02:56:49;;;;;;;9.97;7.97;;;;;;;;;;5096461;28;20561;-83
2021/07/03 02:59:16;;;;;;;8.50;7.70;;;;;;;;;;5096322;28;20210;-82
2021/07/03 03:01:42;;;;;;;9.13;7.93;;;;;;;;;;5094939;28;20198;-83
2021/07/03 03:04:09;;;;;;;14.03;8.03;;;;;;;;;;5094809;28;20233;-83
2021/07/03 03:06:37;;;;;;;10.03;7.93;;;;;;;;;;5094650;28;20198;-83
2021/07/03 03:09:04;;;;;;;8.53;7.63;;;;;;;;;;5094758;28;20198;-83
2021/07/03 03:11:30;;;;;;;8.70;7.80;;;;;;;;;;5094429;28;20202;-82
2021/07/03 03:13:57;;;;;;;8.90;8.10;;;;;;;;;;5094949;28;20221;-82
2021/07/03 03:16:24;;;;;;;11.17;7.43;;;;;;;;;;5094703;28;20198;-82
2021/07/03 03:18:51;;;;;;;13.50;7.90;;;;;;;;;;5095713;28;20268;-82
2021/07/03 03:21:18;;;;;;;9.90;8.20;;;;;;;;;;5095047;28;20779;-83
2021/07/03 03:23:46;;;;;;;10.77;9.13;;;;;;;;;;5094118;28;20202;-82
2021/07/03 03:26:12;;;;;;;8.33;7.60;;;;;;;;;;5094189;28;20225;-83
2021/07/03 03:28:39;;;;;;;8.83;7.93;;;;;;;;;;5094346;28;20202;-81
2021/07/03 03:31:06;;;;;;;9.93;7.93;;;;;;;;;;5094174;28;21025;-83
2021/07/03 03:33:32;;;;;;;9.17;8.03;;;;;;;;;;5094306;28;20228;-83
2021/07/03 03:35:59;;;;;;;10.77;8.40;;;;;;;;;;5094524;28;20190;-83
2021/07/03 03:38:26;;;;;;;8.73;7.90;;;;;;;;;;5094378;28;20662;-83
2021/07/03 03:40:54;;;;;;;7.90;7.20;;;;;;;;;;5093916;28;20945;-83
2021/07/03 03:43:20;;;;;;;8.70;8.00;;;;;;;;;;5094078;28;20662;-83
2021/07/03 03:45:47;;;;;;;8.73;7.83;;;;;;;;;;5094098;28;20212;-82
2021/07/03 03:48:14;;;;;;;9.03;8.13;;;;;;;;;;5093864;28;20194;-82
2021/07/03 03:50:40;;;;;;;9.13;8.03;;;;;;;;;;5095403;28;20205;-83
2021/07/03 03:53:07;;;;;;;9.70;7.57;;;;;;;;;;5093443;28;20221;-83
2021/07/03 03:55:34;;;;;;;9.93;8.03;;;;;;;;;;5093768;28;20198;-83
2021/07/03 03:58:02;;;;;;;9.80;8.83;;;;;;;;;;5093906;28;20252;-82
2021/07/03 04:00:29;;;;;;;9.27;8.37;;;;;;;;;;5093602;28;20248;-83
2021/07/03 04:02:55;;;;;;;12.20;8.40;;;;;;;;;;5093573;28;20605;-83
2021/07/03 04:05:22;;;;;;;10.50;8.17;;;;;;;;;;5093372;28;20541;-81
2021/07/03 04:07:49;;;;;;;11.60;8.80;;;;;;;;;;5093502;28;20189;-82
2021/07/03 04:10:16;;;;;;;10.73;8.93;;;;;;;;;;5093352;28;20194;-82
2021/07/03 04:12:43;;;;;;;9.30;8.40;;;;;;;;;;5093089;28;20649;-81
2021/07/03 04:15:12;;;;;;;9.80;8.63;;;;;;;;;;5092753;28;20202;-82
2021/07/03 04:17:39;;;;;;;8.67;7.87;;;;;;;;;;5094079;28;20539;-81
2021/07/03 04:20:07;;;;;;;11.80;8.30;;;;;;;;;;5093226;28;20270;-82
2021/07/03 04:22:34;;;;;;;9.77;8.43;;;;;;;;;;5094436;28;20220;-81
2021/07/03 04:25:01;;;;;;;12.43;8.13;;;;;;;;;;5092889;28;20661;-82
2021/07/03 04:27:27;;;;;;;9.77;8.03;;;;;;;;;;5093269;28;20681;-81
2021/07/03 04:29:54;;;;;;;9.17;7.70;;;;;;;;;;5093046;28;20549;-81
2021/07/03 04:32:22;;;;;;;9.40;8.37;;;;;;;;;;5092973;28;20201;-81
2021/07/03 04:34:49;;;;;;;10.00;9.00;;;;;;;;;;5093195;28;20522;-81
2021/07/03 04:37:15;;;;;;;9.43;8.30;;;;;;;;;;5094056;28;20205;-81
2021/07/03 04:39:42;;;;;;;8.80;7.90;;;;;;;;;;5092719;28;20248;-81
2021/07/03 04:42:09;;;;;;;9.50;8.53;;;;;;;;;;5092959;28;20239;-81
2021/07/03 04:44:35;;;;;;;9.80;8.03;;;;;;;;;;5094060;28;20178;-82
2021/07/03 04:47:02;;;;;;;8.87;8.03;;;;;;;;;;5092840;28;20206;-82
2021/07/03 04:49:32;;;;;;;9.60;8.70;;;;;;;;;;5092355;28;20244;-81
2021/07/03 04:51:59;;;;;;;8.60;7.80;;;;;;;;;;5092534;28;20677;-82
2021/07/03 04:54:25;;;;;;;8.90;8.10;;;;;;;;;;5092363;28;20215;-81
2021/07/03 04:57:06;;;;;;;9.00;8.07;;;;;;;;;;5092712;28;20201;-81
2021/07/03 04:59:33;;;;;;;8.57;7.77;;;;;;;;;;5093818;28;20264;-81
2021/07/03 05:02:00;;;;;;;8.43;7.53;;;;;;;;;;5092400;28;20186;-81
2021/07/03 05:04:27;;;;;;;9.63;8.13;;;;;;;;;;5091796;28;20226;-81
2021/07/03 05:06:55;;;;;;;9.10;8.20;;;;;;;;;;5092492;28;20247;-81
2021/07/03 05:09:21;;;;;;;8.30;7.60;;;;;;;;;;5093674;28;20208;-81
2021/07/03 05:11:48;;;;;;;8.57;7.73;;;;;;;;;;5093450;28;20213;-81
2021/07/03 05:14:14;;;;;;;9.17;8.30;;;;;;;;;;5091901;28;20255;-81
2021/07/03 05:16:41;;;;;;;8.43;7.53;;;;;;;;;;5092250;28;20247;-81
2021/07/03 05:19:08;;;;;;;9.00;8.10;;;;;;;;;;5093294;28;20257;-81
2021/07/03 05:21:35;;;;;;;10.07;8.13;;;;;;;;;;5092388;28;20558;-81
2021/07/03 05:24:03;;;;;;;8.03;7.33;;;;;;;;;;5093526;28;20238;-81
2021/07/03 05:26:29;;;;;;;10.40;7.47;;;;;;;;;;5092193;28;20222;-81
2021/07/03 05:28:56;;;;;;;7.57;6.87;;;;;;;;;;5091798;28;20205;-80
2021/07/03 05:31:22;;;;;;;8.30;7.53;;;;;;;;;;5092083;28;20197;-80
2021/07/03 05:33:49;;;;;;;9.23;7.80;;;;;;;;;;5091763;28;20232;-81
2021/07/03 05:36:16;;;;;;;8.50;7.80;;;;;;;;;;5093264;28;20209;-82
2021/07/03 05:38:46;;;;;;;10.87;7.27;;;;;;;;;;5093466;28;20644;-80
2021/07/03 05:41:14;;;;;;;7.77;6.97;;;;;;;;;;5091895;28;20201;-81
2021/07/03 05:43:42;;;;;;;9.67;7.60;;;;;;;;;;5091471;28;20206;-81
2021/07/03 05:46:09;;;;;;;8.77;7.87;;;;;;;;;;5096208;28;20224;-81
2021/07/03 05:48:35;;;;;;;8.00;7.20;;;;;;;;;;5095936;28;20198;-81
2021/07/03 05:51:03;;;;;;;9.37;7.30;;;;;;;;;;5097257;28;20248;-81
2021/07/03 05:53:29;;;;;;;8.13;7.17;;;;;;;;;;5095890;28;20246;-81
2021/07/03 05:55:56;;;;;;;7.87;7.07;;;;;;;;;;5097054;28;20206;-82
2021/07/03 05:58:24;;;;;;;7.83;6.87;;;;;;;;;;5096894;28;20213;-82
2021/07/03 06:00:51;;;;;;;8.13;6.50;;;;;;;;;;5097370;28;20229;-81
2021/07/03 06:03:17;;;;;;;8.73;6.80;;;;;;;;;;5096216;28;20229;-81
2021/07/03 06:05:44;;;;;;;7.70;6.90;;;;;;;;;;5095746;28;20202;-81
2021/07/03 06:08:11;;;;;;;7.63;6.80;;;;;;;;;;5097232;28;20237;-80
2021/07/03 06:10:37;;;;;;;7.47;6.87;;;;;;;;;;5097021;28;20198;-81
2021/07/03 06:13:04;;;;;;;7.43;6.73;;;;;;;;;;5095526;28;20208;-81
2021/07/03 06:15:32;;;;;;;7.40;6.70;;;;;;;;;;5095701;28;20190;-81
2021/07/03 06:17:59;;;;;;;9.00;7.03;;;;;;;;;;5096842;28;20213;-81
2021/07/03 06:20:25;;;;;;;8.17;7.03;;;;;;;;;;5096613;28;20257;-81
2021/07/03 06:22:52;;;;;;;7.53;6.83;;;;;;;;;;5096954;28;20336;-82
2021/07/03 06:25:19;;;;;;;7.57;6.87;;;;;;;;;;5095209;28;20190;-83
2021/07/03 06:27:46;;;;;;;11.20;6.70;;;;;;;;;;5096689;28;20712;-82
2021/07/03 06:30:13;;;;;;;6.83;6.23;;;;;;;;;;5096548;28;20209;-82
2021/07/03 06:32:41;;;;;;;9.93;6.67;;;;;;;;;;5096628;28;20178;-82
2021/07/03 06:35:08;;;;;;;10.13;6.37;;;;;;;;;;5096668;28;20697;-81
2021/07/03 06:37:35;;;;;;;7.57;6.80;;;;;;;;;;5096446;28;20201;-82
2021/07/03 06:40:02;;;;;;;7.03;6.33;;;;;;;;;;5095250;28;20237;-81
2021/07/03 06:42:28;;;;;;;7.73;7.00;;;;;;;;;;5095165;28;20206;-82
2021/07/03 06:44:55;;;;;;;6.30;5.77;;;;;;;;;;5094988;28;20186;-81
2021/07/03 06:47:22;;;;;;;9.90;6.43;;;;;;;;;;5095291;28;20197;-81
2021/07/03 06:49:50;;;;;;;6.70;6.10;;;;;;;;;;5096614;28;20217;-82
2021/07/03 06:52:16;;;;;;;6.53;5.90;;;;;;;;;;5094759;28;20202;-82
2021/07/03 06:54:43;;;;;;;7.40;6.53;;;;;;;;;;5095337;28;20201;-82
2021/07/03 06:57:12;;;;;;;6.93;6.23;;;;;;;;;;5097323;28;20174;-81
2021/07/03 06:59:38;;;;;;;7.17;6.37;;;;;;;;;;5095462;28;20245;-82
2021/07/03 07:02:05;;;;;;;6.90;6.27;;;;;;;;;;5095385;28;20590;-82
2021/07/03 07:04:32;;;;;;;7.00;6.30;;;;;;;;;;5096021;28;20590;-82
2021/07/03 07:07:00;;;;;;;9.17;6.97;;;;;;;;;;5094648;28;20259;-81
2021/07/03 07:09:27;;;;;;;12.37;6.03;;;;;;;;;;5094532;28;20194;-82
2021/07/03 07:11:56;;;;;;;7.20;6.20;;;;;;;;;;5094573;28;20201;-81
2021/07/03 07:14:23;;;;;;;6.10;5.50;;;;;;;;;;5094575;28;20194;-83
2021/07/03 07:16:50;;;;;;;7.07;6.47;;;;;;;;;;5094403;28;20257;-81
2021/07/03 07:19:17;;;;;;;7.77;6.10;;;;;;;;;;5094659;28;20198;-81
2021/07/03 07:21:44;;;;;;;7.53;6.77;;;;;;;;;;5094147;28;20564;-80
2021/07/03 07:24:12;;;;;;;7.27;6.53;;;;;;;;;;5094303;28;20914;-82
2021/07/03 07:26:39;;;;;;;7.97;6.50;;;;;;;;;;5094168;28;20252;-81
2021/07/03 07:29:06;;;;;;;9.02;6.90;;;;;;;;;;5093981;28;20204;-80
2021/07/03 07:31:32;;;;;;;7.05;5.82;;;;;;;;;;5095459;28;20233;-81
2021/07/03 07:33:59;;;;;;;7.07;6.47;;;;;;;;;;5093661;28;20206;-81
2021/07/03 07:36:26;;;;;;;6.93;6.33;;;;;;;;;;5093887;28;20534;-80
2021/07/03 07:38:53;;;;;;;6.20;5.70;;;;;;;;;;5095337;28;20185;-81
2021/07/03 07:41:21;;;;;;;7.53;6.33;;;;;;;;;;5094856;28;20253;-82
2021/07/03 07:43:47;;;;;;;8.13;5.87;;;;;;;;;;5093907;28;20198;-80
2021/07/03 07:46:14;;;;;;;6.55;6.05;;;;;;;;;;5093675;28;20239;-82
2021/07/03 07:48:41;;;;;;;6.30;5.70;;;;;;;;;;5093773;28;20235;-81
2021/07/03 07:51:08;;;;;;;6.60;6.00;;;;;;;;;;5095188;28;20244;-81
2021/07/03 07:53:35;;;;;;;6.47;5.80;;;;;;;;;;5093920;28;20198;-81
2021/07/03 07:56:01;;;;;;;6.85;5.55;;;;;;;;;;5094621;28;20241;-80
2021/07/03 07:58:29;;;;;;;6.40;5.88;;;;;;;;;;5094971;28;20244;-82
2021/07/03 08:00:59;;;;;;;8.50;5.72;;;;;;;;;;5094420;28;20276;-80
2021/07/03 08:03:25;;;;;;;6.00;5.43;;;;;;;;;;5093577;28;20233;-80
2021/07/03 08:05:52;;;;;;;6.43;5.82;;;;;;;;;;5094616;28;20214;-81
2021/07/03 08:08:19;;;;;;;5.90;5.50;;;;;;;;;;5094080;28;20209;-80
2021/07/03 08:10:45;;;;;;;5.93;5.53;;;;;;;;;;5092744;28;20731;-80
2021/07/03 08:13:12;;;;;;;6.70;5.57;;;;;;;;;;5094351;28;20703;-80
2021/07/03 08:15:40;;;;;;;6.45;5.50;;;;;;;;;;5094698;28;20560;-80
2021/07/03 08:18:07;;;;;;;6.60;5.57;;;;;;;;;;5093400;28;20201;-80
2021/07/03 08:20:35;;;;;;;6.00;5.53;;;;;;;;;;5093337;28;20755;-81
2021/07/03 08:23:01;;;;;;;5.30;4.90;;;;;;;;;;5094773;28;20205;-80
2021/07/03 08:25:28;;;;;;;6.95;5.32;;;;;;;;;;5093639;28;20221;-80
2021/07/03 08:27:55;;;;;;;6.18;5.68;;;;;;;;;;5094647;28;20216;-81
2021/07/03 08:30:22;;;;;;;5.65;5.25;;;;;;;;;;5094026;28;20922;-82
2021/07/03 08:32:50;;;;;;;7.50;5.43;;;;;;;;;;5094144;28;20213;-80
2021/07/03 08:35:17;;;;;;;9.32;5.72;;;;;;;;;;5092205;28;20244;-80
2021/07/03 08:37:44;;;;;;;5.40;5.00;;;;;;;;;;5092868;28;20210;-80
2021/07/03 08:40:11;;;;;;;6.63;5.65;;;;;;;;;;5092811;28;20245;-80
2021/07/03 08:42:38;;;;;;;6.10;5.00;;;;;;;;;;5093947;28;20238;-79
2021/07/03 08:45:06;;;;;;;7.25;5.60;;;;;;;;;;5092805;28;20556;-80
2021/07/03 08:47:33;;;;;;;9.02;5.30;;;;;;;;;;5092622;28;20193;-80
2021/07/03 08:50:02;;;;;;;13.43;5.40;;;;;;;;;;5093707;28;20206;-83
2021/07/03 08:52:29;;;;;;;5.95;5.45;;;;;;;;;;5092400;28;20247;-80
2021/07/03 08:55:07;;;;;;;5.50;5.10;;;;;;;;;;5093346;28;20217;-80
2021/07/03 08:57:40;;;;;;;5.53;5.05;;;;;;;;;;5093953;28;20216;-80
2021/07/03 09:00:08;;;;;;;5.85;4.85;;;;;;;;;;5092516;28;20253;-79
2021/07/03 09:02:36;;;;;;;6.13;5.57;;;;;;;;;;5091998;28;20604;-82
2021/07/03 09:05:06;;;;;;;6.50;5.50;;;;;;;;;;5093292;28;20853;-81
2021/07/03 09:07:34;;;;;;;6.38;5.78;;;;;;;;;;5093246;28;20213;-81
2021/07/03 09:10:01;;;;;;;7.13;5.28;;;;;;;;;;5092677;28;20202;-81
2021/07/03 09:12:30;;;;;;;5.88;5.20;;;;;;;;;;5091751;28;20251;-80
2021/07/03 09:14:57;;;;;;;13.30;5.00;;;;;;;;;;5091703;28;20599;-82
2021/07/03 09:17:24;;;;;;;5.80;4.93;;;;;;;;;;5092037;28;20193;-80
2021/07/03 09:19:51;;;;;;;9.15;6.53;;;;;;;;;;5092022;28;21299;-81
2021/07/03 09:22:20;;;;;;;7.05;5.15;;;;;;;;;;5091660;28;20769;-80
2021/07/03 09:24:46;;;;;;;6.00;5.32;;;;;;;;;;5082832;28;20752;-83
2021/07/03 09:27:13;;;;;;;4.90;4.50;;;;;;;;;;5072198;28;20256;-81
2021/07/03 09:29:48;;;;;;;5.53;5.00;;;;;;;;;;5072023;28;20647;-81
2021/07/03 09:32:15;;;;;;;5.57;5.00;;;;;;;;;;5071810;28;20186;-82
2021/07/03 09:34:42;;;;;;;5.10;4.70;;;;;;;;;;5072853;28;20245;-82
2021/07/03 09:37:12;;;;;;;4.93;4.55;;;;;;;;;;5073319;28;20221;-81
2021/07/03 09:39:40;;;;;;;6.57;4.53;;;;;;;;;;5071840;28;20241;-84
2021/07/03 09:42:12;;;;;;;4.60;4.20;;;;;;;;;;5073232;28;20258;-83
2021/07/03 09:44:39;;;;;;;7.53;4.65;;;;;;;;;;5072500;28;20248;-85
2021/07/03 09:47:06;;;;;;;4.78;4.43;;;;;;;;;;5073362;28;20175;-81
2021/07/03 09:49:32;;;;;;;6.68;4.53;;;;;;;;;;5072865;28;20211;-84
2021/07/03 09:52:00;;;;;;;4.63;4.22;;;;;;;;;;5073260;28;20206;-83
2021/07/03 09:54:27;;;;;;;6.20;4.70;;;;;;;;;;5071153;28;20206;-81
2021/07/03 09:56:59;;;;;;;4.82;4.43;;;;;;;;;;5071886;28;20236;-83
2021/07/03 09:59:26;;;;;;;4.07;3.53;;;;;;;;;;5073232;28;20679;-83
2021/07/03 10:01:53;;;;;;;4.70;4.18;;;;;;;;;;5071329;28;20245;-80
2021/07/03 10:04:20;;;;;;;5.30;4.90;;;;;;;;;;5071643;28;20226;-84
2021/07/03 10:06:48;;;;;;;4.28;3.97;;;;;;;;;;5071966;28;20206;-86
2021/07/03 10:09:20;;;;;;;4.82;4.40;;;;;;;;;;5072338;28;20191;-85
2021/07/03 10:11:49;;;;;;;4.60;4.20;;;;;;;;;;5071466;28;20728;-85
2021/07/03 10:14:17;;;;;;;4.35;4.05;;;;;;;;;;5072237;28;20191;-88
2021/07/03 10:16:45;;;;;;;4.70;4.30;;;;;;;;;;5071755;28;20221;-84
2021/07/03 10:19:14;;;;;;;5.03;4.53;;;;;;;;;;5071898;28;20183;-83
2021/07/03 10:21:41;;;;;;;4.78;4.43;;;;;;;;;;5072083;28;20276;-87
2021/07/03 10:24:18;;;;;;;6.72;4.50;;;;;;;;;;5071715;28;20662;-85
2021/07/03 10:26:45;;;;;;;4.50;4.20;;;;;;;;;;5074220;28;20230;-86
2021/07/03 10:29:17;;;;;;;4.82;4.53;;;;;;;;;;5073476;28;20720;-85
2021/07/03 10:31:45;;;;;;;4.10;3.80;;;;;;;;;;5074046;28;20194;-90
2021/07/03 10:34:12;;;;;;;6.13;4.22;;;;;;;;;;5076401;28;20190;-87
2021/07/03 10:36:39;;;;;;;4.65;4.25;;;;;;;;;;5077572;28;20175;-86
2021/07/03 10:39:06;;;;;;;4.53;4.20;;;;;;;;;;5076395;28;20187;-86
2021/07/03 10:41:33;;;;;;;4.53;4.18;;;;;;;;;;5076505;28;20265;-85
2021/07/03 10:44:00;;;;;;;3.95;3.72;;;;;;;;;;5076028;28;20214;-85
2021/07/03 10:46:32;;;;;;;6.13;4.30;;;;;;;;;;5075147;28;20211;-83
2021/07/03 10:49:00;;;;;;;4.22;3.60;;;;;;;;;;5074802;28;20203;-81
2021/07/03 10:51:32;;;;;;;4.15;3.85;;;;;;;;;;5074792;28;20195;-82
2021/07/03 10:54:09;;;;;;;5.20;3.97;;;;;;;;;;5074527;28;20202;-82
2021/07/03 10:56:40;;;;;;;4.13;3.80;;;;;;;;;;5076117;28;20818;-83
2021/07/03 10:59:09;;;;;;;3.80;3.60;;;;;;;;;;5074813;28;20193;-82
2021/07/03 11:01:37;;;;;;;4.57;4.28;;;;;;;;;;5074290;28;20249;-81
2021/07/03 11:04:13;;;;;;;4.25;3.95;;;;;;;;;;5076266;28;20230;-79
2021/07/03 11:06:43;;;;;;;3.90;3.70;;;;;;;;;;5074994;28;20212;-81
2021/07/03 11:09:17;;;;;;;4.07;3.78;;;;;;;;;;5075731;28;20238;-84
2021/07/03 11:11:44;;;;;;;4.35;4.05;;;;;;;;;;5074394;28;20197;-84
2021/07/03 11:14:17;;;;;;;4.90;3.97;;;;;;;;;;5074173;28;20251;-83
2021/07/03 11:16:49;;;;;;;4.10;3.80;;;;;;;;;;5075543;28;20202;-83
2021/07/03 11:19:20;;;;;;;4.03;3.63;;;;;;;;;;5074173;28;20207;-83
2021/07/03 11:21:46;;;;;;;5.50;4.10;;;;;;;;;;5073955;28;20635;-83
2021/07/03 11:24:13;;;;;;;4.60;4.30;;;;;;;;;;5073828;28;20659;-82
2021/07/03 11:26:40;;;;;;;3.70;3.50;;;;;;;;;;5076047;28;20214;-85
2021/07/03 11:29:06;;;;;;;3.40;3.20;;;;;;;;;;5073975;28;20731;-83
2021/07/03 11:31:33;;;;;;;4.25;4.05;;;;;;;;;;5075109;28;20245;-83
2021/07/03 11:34:01;;;;;;;4.63;3.47;;;;;;;;;;5073899;28;20203;-85
2021/07/03 11:36:28;;;;;;;4.10;3.80;;;;;;;;;;5074261;28;20253;-85
2021/07/03 11:38:55;;;;;;;8.48;3.80;;;;;;;;;;5075583;28;20179;-86
2021/07/03 11:41:23;;;;;;;4.35;3.67;;;;;;;;;;5073971;28;20299;-87
2021/07/03 11:43:57;;;;;;;4.07;3.70;;;;;;;;;;5072523;28;20204;-84
2021/07/03 11:46:24;;;;;;;3.65;3.45;;;;;;;;;;5079103;28;20668;-84
2021/07/03 11:48:51;;;;;;;3.40;3.10;;;;;;;;;;5073420;28;20727;-82
2021/07/03 11:51:20;;;;;;;3.60;2.92;;;;;;;;;;5073316;28;20194;-83
2021/07/03 11:53:50;;;;;;;3.00;2.70;;;;;;;;;;5073188;28;20616;-82
2021/07/03 11:56:17;;;;;;;3.08;2.80;;;;;;;;;;5073165;28;20194;-82
2021/07/03 11:58:44;;;;;;;3.35;2.75;;;;;;;;;;5074364;28;20682;-82
2021/07/03 12:01:16;;;;;;;2.80;2.70;;;;;;;;;;5073270;28;20254;-82
2021/07/03 12:03:43;;;;;;;3.38;3.08;;;;;;;;;;5072669;28;20698;-81
2021/07/03 12:06:10;;;;;;;3.03;2.83;;;;;;;;;;5074577;28;20242;-81
2021/07/03 12:08:39;;;;;;;3.17;2.72;;;;;;;;;;5089957;28;20190;-81
2021/07/03 12:11:07;;;;;;;3.35;3.15;;;;;;;;;;5093270;28;20202;-81
2021/07/03 12:13:34;;;;;;;3.15;2.95;;;;;;;;;;5093671;28;20201;-82
2021/07/03 12:16:06;;;;;;;3.50;3.30;;;;;;;;;;5081470;28;20241;-84
2021/07/03 12:18:33;;;;;;;3.13;2.90;;;;;;;;;;5072928;28;20203;-82
2021/07/03 12:21:08;;;;;;;3.50;3.28;;;;;;;;;;5073123;28;20240;-80
2021/07/03 12:23:35;;;;;;;4.18;3.22;;;;;;;;;;5073210;28;20238;-80
2021/07/03 12:26:03;;;;;;;5.05;3.38;;;;;;;;;;5072631;28;20238;-81
2021/07/03 12:28:30;;;;;;;3.38;3.17;;;;;;;;;;5072175;28;20229;-80
2021/07/03 12:31:04;;;;;;;3.70;3.40;;;;;;;;;;5073899;28;20238;-80
2021/07/03 12:33:31;;;;;;;3.67;3.45;;;;;;;;;;5073576;28;20234;-81
2021/07/03 12:35:57;;;;;;;4.25;3.20;;;;;;;;;;5073931;28;20741;-81
2021/07/03 12:38:25;;;;;;;3.50;3.30;;;;;;;;;;5072353;28;20654;-80
2021/07/03 12:40:52;;;;;;;3.33;3.13;;;;;;;;;;5072391;28;20244;-81
2021/07/03 12:43:29;;;;;;;4.10;3.50;;;;;;;;;;5072339;28;20250;-81
2021/07/03 12:45:58;;;;;;;3.40;3.10;;;;;;;;;;5073851;28;20268;-82
2021/07/03 12:48:33;;;;;;;2.70;2.60;;;;;;;;;;5073455;28;20238;-79
2021/07/03 12:51:00;;;;;;;3.38;3.08;;;;;;;;;;5073803;28;20210;-81
2021/07/03 12:53:31;;;;;;;3.40;2.90;;;;;;;;;;5072153;28;20226;-81
2021/07/03 12:55:58;;;;;;;3.05;2.85;;;;;;;;;;5074121;28;20234;-81
2021/07/03 12:58:28;;;;;;;2.83;2.63;;;;;;;;;;5073347;28;20245;-80
2021/07/03 13:00:55;;;;;;;2.80;2.70;;;;;;;;;;5072284;28;20191;-81
2021/07/03 13:03:22;;;;;;;2.83;2.72;;;;;;;;;;5071518;28;20258;-80
2021/07/03 13:05:49;;;;;;;3.10;2.90;;;;;;;;;;5072146;28;20244;-81
2021/07/03 13:08:16;;;;;;;3.40;3.10;;;;;;;;;;5073037;28;20213;-80
2021/07/03 13:10:43;;;;;;;3.47;3.17;;;;;;;;;;5073502;28;20221;-81
2021/07/03 13:13:09;;;;;;;4.35;3.20;;;;;;;;;;5072951;28;20238;-81
2021/07/03 13:15:37;;;;;;;6.00;2.97;;;;;;;;;;5073006;28;20234;-82
2021/07/03 13:18:04;;;;;;;2.90;2.70;;;;;;;;;;5073303;28;20210;-82
2021/07/03 13:20:31;;;;;;;3.22;3.00;;;;;;;;;;5071512;28;20218;-80
2021/07/03 13:22:57;;;;;;;3.78;3.28;;;;;;;;;;5073163;28;20257;-79
2021/07/03 13:25:24;;;;;;;3.25;3.05;;;;;;;;;;5073229;28;20246;-81
2021/07/03 13:27:51;;;;;;;3.10;3.00;;;;;;;;;;5071711;28;20255;-80
2021/07/03 13:30:18;;;;;;;3.47;3.28;;;;;;;;;;5072995;28;20179;-80
2021/07/03 13:32:47;;;;;;;3.30;3.10;;;;;;;;;;5073049;28;20209;-80
2021/07/03 13:35:15;;;;;;;4.22;3.05;;;;;;;;;;5073095;28;20218;-80
2021/07/03 13:37:41;;;;;;;3.33;3.00;;;;;;;;;;5072109;28;20267;-80
2021/07/03 13:40:09;;;;;;;3.50;3.30;;;;;;;;;;5071889;28;20213;-80
2021/07/03 13:42:36;;;;;;;3.50;3.08;;;;;;;;;;5071914;28;20246;-82
2021/07/03 13:45:03;;;;;;;3.63;3.33;;;;;;;;;;5071448;28;20202;-79
2021/07/03 13:47:29;;;;;;;3.42;3.22;;;;;;;;;;5072791;28;20181;-80
2021/07/03 13:49:57;;;;;;;4.07;2.90;;;;;;;;;;5071588;28;20233;-80
2021/07/03 13:52:24;;;;;;;5.50;2.90;;;;;;;;;;5071939;28;20935;-80
2021/07/03 13:54:51;;;;;;;3.50;3.20;;;;;;;;;;5073115;28;20246;-81
2021/07/03 13:57:17;;;;;;;3.67;3.05;;;;;;;;;;5072885;28;20214;-81
2021/07/03 13:59:44;;;;;;;3.88;2.85;;;;;;;;;;5071254;28;20206;-79
2021/07/03 14:02:11;;;;;;;2.97;2.88;;;;;;;;;;5072899;28;20186;-81
2021/07/03 14:04:37;;;;;;;4.13;3.08;;;;;;;;;;5072635;28;20257;-82
2021/07/03 14:07:05;;;;;;;3.92;3.63;;;;;;;;;;5075715;28;20218;-81
2021/07/03 14:09:32;;;;;;;3.05;2.90;;;;;;;;;;5075362;28;20206;-82
2021/07/03 14:11:59;;;;;;;3.50;2.88;;;;;;;;;;5076713;28;20249;-81
2021/07/03 14:14:25;;;;;;;3.47;2.90;;;;;;;;;;5076838;28;20222;-80
2021/07/03 14:16:52;;;;;;;3.10;2.83;;;;;;;;;;5075512;28;20248;-80
2021/07/03 14:19:19;;;;;;;3.05;2.85;;;;;;;;;;5076636;28;20244;-80
2021/07/03 14:21:46;;;;;;;3.03;2.83;;;;;;;;;;5075277;28;20207;-80
2021/07/03 14:24:14;;;;;;;3.33;3.13;;;;;;;;;;5076483;28;20614;-80
2021/07/03 14:26:41;;;;;;;3.15;2.85;;;;;;;;;;5076569;28;20258;-80
2021/07/03 14:29:07;;;;;;;3.00;2.80;;;;;;;;;;5075133;28;20202;-80
2021/07/03 14:31:34;;;;;;;4.97;3.28;;;;;;;;;;5074761;28;20198;-80
2021/07/03 14:34:01;;;;;;;2.90;2.75;;;;;;;;;;5074905;28;20197;-80
2021/07/03 14:36:27;;;;;;;3.40;3.20;;;;;;;;;;5074723;28;20202;-80
2021/07/03 14:38:54;;;;;;;3.20;3.00;;;;;;;;;;5076211;28;20175;-80
2021/07/03 14:41:22;;;;;;;2.90;2.80;;;;;;;;;;5074003;28;20573;-80